Monday, December 17, 2018, 9:50 AM GMT
Back to Local

CWJB, Ste Foy CS , Que.

Location: , , Canada Lat: 47.3
Local Time: 9:50 AM GMT ( 9:50 GMT) Lon: -71.267
Time Zone: GMT Elev: 298 ft

Show me the last for .
Show Decoded

2018-12-17 09:00 METAR CWJB 170900Z AUTO 08005KT M02/M04 RMK AO1 SOG 35 T10171037 =
2018-12-17 08:00 METAR CWJB 170800Z AUTO 06003KT M02/M04 RMK AO1 SOG 35 T10181035 =
2018-12-17 07:00 METAR CWJB 170700Z AUTO 08004KT M02/M04 RMK AO1 SOG 35 T10181035 =
2018-12-17 06:00 METAR CWJB 170600Z AUTO 07005KT M01/M04 RMK AO1 SOG 35 T10121035 =
2018-12-17 05:00 METAR CWJB 170500Z AUTO 05003KT M02/M03 RMK AO1 SOG 35 T10181032 =
2018-12-17 04:00 METAR CWJB 170400Z AUTO 06003KT M02/M04 RMK AO1 SOG 35 T10211036 =
2018-12-17 03:00 METAR CWJB 170300Z AUTO 05004KT M02/M04 RMK AO1 SOG 35 T10201036 =
2018-12-17 02:00 METAR CWJB 170200Z AUTO 08006KT M02/M04 RMK AO1 SOG 35 T10181037 =
2018-12-17 01:00 METAR CWJB 170100Z AUTO 05005KT M02/M05 RMK AO1 SOG 35 T10181046 =
2018-12-17 00:00 METAR CWJB 170000Z AUTO 05004KT M02/M05 RMK AO1 SOG 35 T10161046 =
2018-12-16 23:00 METAR CWJB 162300Z AUTO 04003KT M02/M04 RMK AO1 SOG 35 T10161044 =
2018-12-16 22:00 METAR CWJB 162200Z AUTO 03004KT M01/M04 RMK AO1 SOG 35 T10131041 =
2018-12-16 21:00 METAR CWJB 162100Z AUTO 04005KT M01/M04 RMK AO1 SOG 35 T10131040 =
2018-12-16 20:00 METAR CWJB 162000Z AUTO 04003KT M00/M04 RMK AO1 SOG 35 T10031039 =
2018-12-16 19:00 METAR CWJB 161900Z AUTO 05003KT 00/M04 RMK AO1 SOG 35 T00001036 =
2018-12-16 18:00 METAR CWJB 161800Z AUTO 14003KT M00/M04 RMK AO1 SOG 35 T10041036 =
2018-12-16 17:00 METAR CWJB 161700Z AUTO 03004KT M02/M04 RMK AO1 SOG 35 T10171041 =
2018-12-16 16:00 METAR CWJB 161600Z AUTO 01003KT M03/M04 RMK AO1 SOG 35 T10301038 =
2018-12-16 15:00 METAR CWJB 161500Z AUTO 02002KT M04/M04 RMK AO1 SOG 35 T10381044 =
2018-12-16 14:00 METAR CWJB 161400Z AUTO 00000KT M05/M05 RMK AO1 SOG 35 T10461053 =
2018-12-16 13:00 METAR CWJB 161300Z AUTO 01001KT M04/M05 RMK AO1 SOG 35 T10411047 =
2018-12-16 12:00 METAR CWJB 161200Z AUTO 33001KT M04/M05 RMK AO1 SOG 35 T10431049 =
2018-12-16 11:00 METAR CWJB 161100Z AUTO 17001KT M05/M05 RMK AO1 SOG 35 T10471054 =
2018-12-16 10:00 METAR CWJB 161000Z AUTO 36001KT M05/M05 RMK AO1 SOG 35 T10461053 =

Support USWX by starting your Amazon purchase here.